AirNav   Free Bose QuietComfort 20
 
 943 users online  

PA26 WXKW Heliport
Allentown, Pennsylvania, USA

GOING TO ALLENTOWN?


FAA INFORMATION EFFECTIVE 05 DECEMBER 2019

Location

FAA Identifier: PA26
Lat/Long: 40-38-10.3490N 075-29-04.6590W
40-38.172483N 075-29.077650W
40.6362081,-75.4846275
(estimated)
Elevation: 385 ft. / 117 m (estimated)
Variation: 11W (1985)
From city: 1 mile W of ALLENTOWN, PA
Time zone: UTC -5 (UTC -4 during Daylight Saving Time)
Zip code: 18052

Heliport Operations

Heliport use: Private use. Permission required prior to landing
Activation date: 07/1973
Control tower: no
ARTCC: NEW YORK CENTER
FSS: WILLIAMSPORT FLIGHT SERVICE STATION
Attendance: DAYLIGHT HOURS
Wind indicator: yes
Segmented circle: no

Heliport Communications

WX ASOS at ABE (2.2 nm NE): PHONE 610-266-3579
WX AWOS-3 at XLL (4 nm S): 127.875 (610-231-3111)
WX AWOS-3 at UKT (13 nm S): 119.475 (215-538-7610)
WX AWOS-3PT at 22N (16 nm NW): 119.350 (570-386-3423)
WX AWOS-3 at CKZ (17 nm SE): 126.325 (215-257-7291)

Nearby radio navigation aids

VOR radial/distance  VOR name  Freq  Var
FJCr204/5.6ALLENTOWN VORTAC117.5010W
ETXr079/9.7EAST TEXAS VOR/DME110.2009W
PTWr017/25.1POTTSTOWN VORTAC116.5009W
BWZr263/31.7BROADWAY VOR/DME114.2011W
SBJr285/34.0SOLBERG VOR/DME112.9010W
ARDr321/35.0YARDLEY VOR/DME108.2010W
STWr243/35.3STILLWATER VOR/DME109.6011W
LVZr176/39.3WILKES-BARRE VORTAC111.6010W

 
NDB name  Hdg/Dist  Freq  Var  ID
AMBLER355/31.927512WING .. -. --.

Heliport Services

Airframe service: NONE
Powerplant service: NONE

Runway Information

Helipad H1

Dimensions: 500 x 400 ft. / 152 x 122 m
Surface: turf, in fair condition
Latitude: 40-38.172483N
Longitude: 075-29.077650W
Elevation: 385.0 ft.
Traffic pattern: leftleft
Markings: none, in fair condition

Heliport Ownership and Management from official FAA records

Ownership: Privately-owned
Owner: HGF ORGANIZATION, INC
HOTEL TRAYLOR/15TH & HAMILTON
ALLENTOWN, PA 18102
Phone 215-435-5913
Manager: MICHAEL J. KRAJSA

Heliport Operational Statistics

Aircraft based on the field: 1
Helicopters: 1
    

Additional Remarks

A52-H1 THREE RADIO TOWERS-M.
FOR CD CTC ALLENTOWN APCH AT 800-728-6322.

Instrument Procedures

There are no published instrument procedures at PA26.

Some nearby airports with instrument procedures:

KABE - Lehigh Valley International Airport (2 nm NE)
KXLL - Allentown Queen City Municipal Airport (4 nm S)
N43 - Braden Airpark (13 nm NE)
KUKT - Quakertown Airport (13 nm S)
22N - Jake Arner Memorial Airport (16 nm NW)
KCKZ - Pennridge Airport (17 nm SE)
 
Loc | Ops | Rwys | IFR | FBO | Links
Com | Nav | Svcs | Stats | Notes
Area around PA26 (WXKW Heliport)
 
Road maps at: MapQuest Bing Google
 
Aerial photo
No photo
 
Sectional chart

 
Airport distance calculator
Flying to WXKW Heliport? Find the distance to fly.

From to PA26

Sunrise and sunset
Times for 12-Dec-2019
 Local
(UTC-5)
 Zulu
(UTC)
Morning civil twilight06:4711:47
Sunrise07:1712:17
Sunset16:3421:34
Evening civil twilight17:0522:05

Current date and time
Zulu (UTC)  12-Dec-2019 23:40:55
Local (UTC-5)  12-Dec-2019 18:40:55
 
METAR
KABE 
2nm NE 
122251Z 13003KT 10SM CLR 02/M11 A3064 RMK AO2 SLP382 T00171111
KXLL 
4nm S 
122315Z AUTO 00000KT 10SM CLR 00/M08 A3065 RMK AO2
KUKT 
13nm S 
122320Z AUTO 00000KT 10SM CLR M03/M08 A3064 RMK A01
K22N 
16nm NW 
122317Z AUTO 00000KT 10SM CLR M03/M05 A3063 RMK AO2
KCKZ 
17nm SE 
122315Z AUTO 13003KT 10SM FEW027 M03/M08 A3065 RMK AO2
TAF
KABE 
2nm NE 
121721Z 1218/1318 VRB03KT P6SM SCT250 FM130000 VRB02KT P6SM BKN200 FM130900 VRB03KT P6SM OVC040 FM131200 VRB03KT P6SM OVC025 FM131500 VRB03KT P6SM VCSH OVC015
NOTAMs
Click for the latest NOTAMs
NOTAMs are issued by the DoD/FAA and will open in a separate window not controlled by AirNav.

 

 
 

Would you like to see your business listed on this page?

 If your business provides an interesting product or service to pilots, flight crews, aircraft, or users of the WXKW Heliport, you should consider listing it here.  To start the listing process, click on the button below
 
Add a business
 

Other Pages about WXKW Heliport

Update a link
 
Copyright © AirNav, LLC. All rights reserved. Privacy Policy  Contact